Time;durP1;ratioP1;P1;durP2;ratioP2;P2;SDS_P1;SDS_P2;PMS_P1;PMS_P2;Temp;Humidity;BMP_temperature;BMP_pressure;BME280_temperature;BME280_humidity;BME280_pressure;Samples;Min_cycle;Max_cycle;Signal;HPM_P1;HPM_P2
2021/12/21 00:02:33;;;;;;;12.07;7.60;;;;;;;-3.18;81.25;99349.66;2167438;82;21305;-81
2021/12/21 00:05:33;;;;;;;16.10;7.37;;;;;;;-3.19;81.25;99348.77;2140309;81;21424;-80
2021/12/21 00:08:35;;;;;;;18.40;8.30;;;;;;;-3.18;81.22;99353.49;2227694;79;21382;-81
2021/12/21 00:11:36;;;;;;;24.43;11.17;;;;;;;-3.02;82.48;99358.94;2176232;81;21006;-83
2021/12/21 00:15:00;;;;;;;26.10;11.33;;;;;;;-3.00;81.31;99363.38;2176733;82;21359;-83
2021/12/21 00:17:58;;;;;;;26.02;11.45;;;;;;;-3.01;81.21;99359.05;2225807;79;20948;-82
2021/12/21 00:24:00;;;;;;;18.80;10.27;;;;;;;-3.03;81.43;99362.27;2209392;80;21062;-83
2021/12/21 00:27:00;;;;;;;25.87;10.87;;;;;;;-3.02;81.54;99362.38;2226605;79;20959;-82
2021/12/21 00:30:00;;;;;;;21.70;10.23;;;;;;;-2.96;81.65;99362.83;2227086;79;20920;-82
2021/12/21 00:33:01;;;;;;;21.60;10.63;;;;;;;-2.90;81.71;99363.27;2227260;79;20972;-83
2021/12/21 00:36:01;;;;;;;23.97;10.80;;;;;;;-2.85;81.66;99358.49;2226992;79;20916;-82
2021/12/21 00:39:04;;;;;;;21.27;12.03;;;;;;;-2.82;81.63;99362.55;2226537;79;20988;-82
2021/12/21 00:42:04;;;;;;;21.73;9.87;;;;;;;-2.80;81.68;99364.82;2226397;79;21493;-82
2021/12/21 00:45:05;;;;;;;28.97;11.10;;;;;;;-2.80;81.56;99358.44;2227041;79;20988;-82
2021/12/21 00:48:05;;;;;;;26.43;11.90;;;;;;;-2.53;81.61;99359.55;2226983;79;20913;-82
2021/12/21 00:51:06;;;;;;;20.73;11.67;;;;;;;-2.61;81.35;99366.63;2227193;79;21301;-81
2021/12/21 00:54:07;;;;;;;29.07;12.20;;;;;;;-2.68;81.38;99369.53;2227086;80;20971;-82
2021/12/21 00:57:08;;;;;;;23.17;11.53;;;;;;;-2.71;81.53;99368.03;2226129;79;20936;-82
2021/12/21 01:00:08;;;;;;;23.40;11.23;;;;;;;-2.73;81.52;99372.53;2177124;81;20975;-82
2021/12/21 01:03:12;;;;;;;27.23;11.73;;;;;;;-2.78;81.55;99373.48;2226931;79;20995;-82
2021/12/21 01:06:40;;;;;;;23.07;12.97;;;;;;;-2.84;81.54;99368.32;2227330;79;21024;-82
2021/12/21 01:13:15;;;;;;;23.50;12.03;;;;;;;-2.88;81.79;99385.09;2227504;79;20964;-82
2021/12/21 01:16:19;;;;;;;22.20;11.33;;;;;;;-2.89;81.89;99383.32;2226501;79;21023;-80
2021/12/21 01:22:31;;;;;;;26.17;12.05;;;;;;;-2.91;81.99;99389.98;2215985;80;21395;-81
2021/12/21 01:25:34;;;;;;;31.03;12.27;;;;;;;-2.87;82.04;99385.98;2225840;79;21039;-81
2021/12/21 01:28:35;;;;;;;23.67;11.80;;;;;;;-2.84;82.01;99381.98;2226323;79;21074;-81
2021/12/21 01:31:52;;;;;;;25.43;11.77;;;;;;;-2.80;81.93;99381.81;2226407;79;21039;-80
2021/12/21 01:35:01;;;;;;;30.87;13.20;;;;;;;-2.77;81.72;99382.04;2226842;79;21000;-81
2021/12/21 01:38:01;;;;;;;26.40;10.73;;;;;;;-2.76;81.79;99382.15;2226208;79;21425;-82
2021/12/21 01:41:07;;;;;;;22.27;10.47;;;;;;;-2.76;81.68;99383.81;2226834;79;20960;-81
2021/12/21 01:44:20;;;;;;;24.00;11.03;;;;;;;-2.75;81.74;99379.20;2226895;79;21011;-81
2021/12/21 01:50:26;;;;;;;24.07;11.47;;;;;;;-2.73;81.84;99379.81;2227899;79;21340;-82
2021/12/21 01:53:26;;;;;;;21.67;11.13;;;;;;;-2.73;81.93;99382.37;2227724;79;20885;-81
2021/12/21 01:56:27;;;;;;;25.13;10.10;;;;;;;-2.72;82.07;99375.20;2227763;79;20947;-82
2021/12/21 01:59:27;;;;;;;25.47;12.17;;;;;;;-2.57;82.18;99369.94;2227478;79;21338;-82
2021/12/21 02:02:28;;;;;;;26.17;11.63;;;;;;;-2.55;81.96;99379.00;2227319;79;21375;-81
2021/12/21 02:05:28;;;;;;;26.03;12.60;;;;;;;-2.54;81.93;99376.05;2226656;79;21027;-82
2021/12/21 02:08:29;;;;;;;21.83;11.43;;;;;;;-2.51;81.82;99371.16;2227748;79;20881;-82
2021/12/21 02:11:29;;;;;;;22.57;10.53;;;;;;;-2.49;81.83;99372.16;2227877;79;20924;-82
2021/12/21 02:14:30;;;;;;;27.30;12.03;;;;;;;-2.52;81.71;99371.55;2227491;79;20976;-82
2021/12/21 02:18:02;;;;;;;29.97;13.40;;;;;;;-2.58;81.67;99375.83;2227674;79;20920;-81
2021/12/21 02:23:41;;;;;;;32.47;13.87;;;;;;;-2.60;81.71;99386.34;2216657;80;20963;-81
2021/12/21 02:26:48;;;;;;;31.40;14.90;;;;;;;-2.59;81.75;99384.28;2227397;79;20955;-81
2021/12/21 02:29:42;;;;;;;24.63;13.50;;;;;;;-2.58;81.83;99382.22;2226075;79;21408;-81
2021/12/21 02:32:43;;;;;;;27.67;13.17;;;;;;;-2.57;81.85;99382.72;2226485;79;20941;-81
2021/12/21 02:35:43;;;;;;;25.47;10.97;;;;;;;-2.57;81.88;99384.00;2227654;79;20912;-81
2021/12/21 02:38:44;;;;;;;26.27;12.33;;;;;;;-2.53;81.92;99377.83;2227666;79;20952;-81
2021/12/21 02:41:44;;;;;;;23.40;11.80;;;;;;;-2.52;81.92;99380.49;2227682;79;21410;-80
2021/12/21 02:44:45;;;;;;;22.20;10.20;;;;;;;-2.57;81.85;99378.89;2180734;81;21042;-81
2021/12/21 02:47:45;;;;;;;23.27;10.17;;;;;;;-2.68;81.84;99378.48;2180796;81;20924;-81
2021/12/21 02:50:46;;;;;;;21.43;12.20;;;;;;;-2.76;82.04;99386.38;2180736;81;20975;-81
2021/12/21 02:53:47;;;;;;;22.57;12.33;;;;;;;-2.79;82.11;99388.31;2180853;81;20963;-81
2021/12/21 02:56:47;;;;;;;26.80;12.60;;;;;;;-2.82;82.16;99385.92;2182026;81;20932;-81
2021/12/21 02:59:48;;;;;;;24.10;9.63;;;;;;;-2.55;82.88;99393.05;2180144;81;20966;-81
2021/12/21 03:02:48;;;;;;;22.90;10.20;;;;;;;-2.59;81.83;99391.06;2166843;82;21025;-82
2021/12/21 03:05:55;;;;;;;23.83;9.77;;;;;;;-2.64;81.69;99393.64;2179716;81;20975;-81
2021/12/21 03:08:58;;;;;;;14.90;8.90;;;;;;;-2.68;81.74;99391.64;2180354;81;20966;-81
2021/12/21 03:12:08;;;;;;;16.20;8.93;;;;;;;-2.72;81.73;99396.92;2180497;81;20963;-81
2021/12/21 03:14:59;;;;;;;20.10;9.00;;;;;;;-2.71;81.82;99403.81;2179547;81;21039;-82
2021/12/21 03:17:59;;;;;;;15.60;9.00;;;;;;;-2.67;81.58;99405.81;2182104;81;20935;-82
2021/12/21 03:21:00;;;;;;;19.60;8.90;;;;;;;-2.64;81.54;99398.36;2181034;81;20955;-82
2021/12/21 03:24:00;;;;;;;18.73;9.17;;;;;;;-2.63;81.58;99397.58;2180829;81;21158;-80
2021/12/21 03:27:01;;;;;;;14.87;8.10;;;;;;;-2.63;81.54;99399.25;2180742;82;20931;-81
2021/12/21 03:30:01;;;;;;;22.63;9.50;;;;;;;-2.59;81.40;99393.61;2180081;81;21115;-83
2021/12/21 03:33:02;;;;;;;19.83;9.17;;;;;;;-2.58;81.46;99386.05;2179980;81;20939;-82
2021/12/21 03:36:03;;;;;;;30.23;10.13;;;;;;;-2.56;81.16;99390.00;2180767;82;20971;-81
2021/12/21 03:39:08;;;;;;;25.67;9.77;;;;;;;-2.58;81.22;99391.17;2166750;82;21446;-81
2021/12/21 03:42:08;;;;;;;23.63;9.93;;;;;;;-2.58;81.24;99395.00;2141998;83;21055;-82
2021/12/21 03:45:09;;;;;;;15.73;7.60;;;;;;;-2.59;81.27;99393.23;2167187;82;21016;-81
2021/12/21 03:48:13;;;;;;;23.03;9.60;;;;;;;-2.60;81.24;99399.11;2141403;83;20975;-81
2021/12/21 03:51:11;;;;;;;15.20;8.30;;;;;;;-2.59;81.52;99385.95;2166327;82;21040;-82
2021/12/21 03:54:12;;;;;;;18.13;8.97;;;;;;;-2.62;81.47;99386.58;2140944;83;20955;-82
2021/12/21 03:57:13;;;;;;;19.47;9.43;;;;;;;-2.61;81.61;99393.86;2167753;82;21336;-81
2021/12/21 04:00:13;;;;;;;21.67;9.13;;;;;;;-2.62;81.38;99395.53;2142347;83;20947;-81
2021/12/21 04:03:14;;;;;;;17.57;8.07;;;;;;;-2.65;80.81;99395.31;2168067;82;20965;-81
2021/12/21 04:06:14;;;;;;;23.00;9.13;;;;;;;-2.67;80.97;99403.25;2141952;81;21015;-81
2021/12/21 04:09:15;;;;;;;13.80;7.90;;;;;;;-2.69;81.01;99402.25;2167337;82;20992;-80
2021/12/21 04:12:15;;;;;;;19.27;7.90;;;;;;;-2.67;80.91;99403.25;2141500;83;20991;-81
2021/12/21 04:18:20;;;;;;;13.07;8.03;;;;;;;-2.66;80.48;99406.70;2128863;83;21457;-81
2021/12/21 04:21:20;;;;;;;16.33;7.37;;;;;;;-2.65;80.67;99407.20;2166697;82;21119;-81
2021/12/21 04:24:21;;;;;;;15.10;7.77;;;;;;;-2.62;80.38;99410.86;2141522;83;20991;-81
2021/12/21 04:27:21;;;;;;;14.87;7.00;;;;;;;-2.62;80.39;99409.59;2166761;82;20984;-81
2021/12/21 04:30:22;;;;;;;13.87;7.33;;;;;;;-2.62;80.44;99413.80;2140935;83;21324;-82
2021/12/21 04:33:22;;;;;;;16.50;8.40;;;;;;;-2.62;80.34;99408.31;2165472;82;20979;-82
2021/12/21 04:36:23;;;;;;;14.23;7.53;;;;;;;-2.61;80.38;99411.75;2139725;83;20987;-82
2021/12/21 04:39:36;;;;;;;14.73;7.17;;;;;;;-2.61;80.04;99402.80;2167300;82;21259;-83
2021/12/21 04:42:29;;;;;;;11.03;6.73;;;;;;;-2.60;80.24;99405.50;2141125;82;20983;-81
2021/12/21 04:45:30;;;;;;;14.63;7.77;;;;;;;-2.58;79.79;99412.00;2167463;82;21072;-82
2021/12/21 04:48:30;;;;;;;12.30;6.70;;;;;;;-2.62;79.90;99418.53;2142195;83;20936;-83
2021/12/21 04:51:30;;;;;;;14.73;6.80;;;;;;;-2.60;80.08;99413.17;2166626;82;21316;-83
2021/12/21 04:54:31;;;;;;;12.67;6.63;;;;;;;-2.59;79.91;99420.45;2141644;83;21399;-83
2021/12/21 04:57:31;;;;;;;11.23;6.33;;;;;;;-2.61;79.40;99413.91;2166822;82;20913;-82
2021/12/21 05:00:32;;;;;;;13.17;7.17;;;;;;;-2.59;79.99;99420.06;2140139;83;20959;-82
2021/12/21 05:03:33;;;;;;;11.47;5.60;;;;;;;-2.55;79.80;99422.84;2165168;82;21050;-83
2021/12/21 05:06:33;;;;;;;12.23;6.40;;;;;;;-2.57;79.33;99422.34;2146790;82;20989;-82
2021/12/21 05:09:42;;;;;;;12.27;6.20;;;;;;;-2.57;79.27;99423.61;2169062;82;20964;-81
2021/12/21 05:12:39;;;;;;;11.00;6.27;;;;;;;-2.53;79.58;99430.23;2159642;82;21444;-83
2021/12/21 05:15:39;;;;;;;10.77;6.10;;;;;;;-2.50;79.66;99433.89;2169456;82;21067;-82
2021/12/21 05:18:40;;;;;;;9.03;5.27;;;;;;;-2.48;78.79;99436.56;2160049;82;20996;-82
2021/12/21 05:21:40;;;;;;;10.30;6.67;;;;;;;-2.51;78.86;99437.62;2169598;82;20995;-82
2021/12/21 05:24:41;;;;;;;8.97;5.47;;;;;;;-2.54;78.89;99424.61;2159280;82;21047;-82
2021/12/21 05:27:41;;;;;;;20.57;7.70;;;;;;;-2.50;78.62;99436.84;2169271;82;21008;-81
2021/12/21 05:30:42;;;;;;;10.53;5.60;;;;;;;-2.52;78.89;99430.73;2159290;82;20996;-82
2021/12/21 05:33:42;;;;;;;12.50;7.90;;;;;;;-2.50;78.85;99439.39;2168322;82;21012;-81
2021/12/21 05:36:43;;;;;;;10.17;5.67;;;;;;;-2.51;78.67;99444.90;2159623;82;20976;-82
2021/12/21 05:39:55;;;;;;;7.37;5.10;;;;;;;-2.51;78.51;99445.28;2168726;82;20972;-82
2021/12/21 05:42:46;;;;;;;8.47;5.60;;;;;;;-2.53;78.82;99443.90;2158050;82;21067;-82
2021/12/21 05:45:49;;;;;;;9.83;5.70;;;;;;;-2.53;78.68;99449.01;2169605;82;21083;-82
2021/12/21 05:48:51;;;;;;;8.77;5.27;;;;;;;-2.56;78.86;99447.52;2160260;82;20996;-82
2021/12/21 05:51:54;;;;;;;15.93;7.37;;;;;;;-2.54;79.24;99448.90;2168994;82;20964;-82
2021/12/21 05:54:54;;;;;;;16.33;8.60;;;;;;;-2.52;78.84;99449.90;2160195;82;21079;-82
2021/12/21 05:57:55;;;;;;;14.43;8.13;;;;;;;-2.56;78.60;99447.52;2170251;82;20976;-82
2021/12/21 06:00:55;;;;;;;12.43;5.23;;;;;;;-2.60;78.67;99442.95;2160244;82;21067;-82
2021/12/21 06:03:56;;;;;;;11.40;5.63;;;;;;;-2.61;79.17;99450.98;2169624;82;21506;-80
2021/12/21 06:06:56;;;;;;;7.70;5.17;;;;;;;-2.60;79.26;99454.06;2150354;82;21089;-76
2021/12/21 06:09:57;;;;;;;9.43;6.63;;;;;;;-2.60;79.13;99455.73;2163623;82;20964;-79
2021/12/21 06:26:11;;;;;;;10.08;5.67;;;;;;;-2.71;78.36;99461.30;2137957;83;20964;-80
2021/12/21 06:29:11;;;;;;;13.27;6.60;;;;;;;-2.78;78.60;99464.19;2164426;82;21035;-80
2021/12/21 06:32:11;;;;;;;9.87;5.53;;;;;;;-2.82;78.27;99472.80;2138487;83;20983;-80
2021/12/21 06:35:12;;;;;;;10.63;7.13;;;;;;;-2.90;78.29;99477.34;2164134;82;21350;-80
2021/12/21 06:38:12;;;;;;;11.93;7.33;;;;;;;-2.96;78.26;99478.16;2138914;83;21466;-80
2021/12/21 06:41:13;;;;;;;13.43;6.13;;;;;;;-2.99;78.40;99490.70;2164607;82;21419;-80
2021/12/21 06:44:15;;;;;;;8.43;5.27;;;;;;;-3.03;78.30;99497.25;2138816;83;21991;-80
2021/12/21 06:51:44;;;;;;;11.97;7.33;;;;;;;-3.06;78.53;99515.28;2138367;83;20991;-80
2021/12/21 06:53:52;;;;;;;9.07;5.90;;;;;;;-3.10;78.29;99510.33;2159866;82;21004;-79
2021/12/21 06:56:52;;;;;;;9.80;5.50;;;;;;;-3.11;78.09;99511.50;2139561;83;20956;-80
2021/12/21 06:59:53;;;;;;;13.07;6.20;;;;;;;-3.10;78.21;99508.16;2164171;82;21953;-79
2021/12/21 07:02:53;;;;;;;11.13;5.60;;;;;;;-3.06;78.45;99512.73;2139063;83;21010;-80
2021/12/21 07:05:54;;;;;;;10.63;5.27;;;;;;;-3.02;78.06;99519.46;2163650;82;20988;-79
2021/12/21 07:12:18;;;;;;;10.97;5.13;;;;;;;-2.93;78.10;99521.81;2144764;82;21526;-79
2021/12/21 07:18:31;;;;;;;8.50;5.17;;;;;;;-2.88;77.53;99531.99;2164538;82;21000;-79
2021/12/21 07:21:31;;;;;;;11.97;5.50;;;;;;;-2.83;77.65;99523.39;2139631;83;21027;-77
2021/12/21 07:24:31;;;;;;;10.37;5.77;;;;;;;-2.79;77.43;99532.67;2162734;82;21055;-81
2021/12/21 07:27:32;;;;;;;13.20;7.17;;;;;;;-2.73;77.79;99533.52;2137932;83;21030;-80
2021/12/21 07:30:35;;;;;;;13.80;5.50;;;;;;;-2.66;77.76;99535.37;2164311;82;21091;-78
2021/12/21 07:33:36;;;;;;;9.63;5.60;;;;;;;-2.63;77.27;99532.15;2137671;83;21354;-80
2021/12/21 07:36:36;;;;;;;8.00;5.20;;;;;;;-2.64;77.12;99530.38;2164895;82;21424;-79
2021/12/21 07:39:37;;;;;;;11.77;6.10;;;;;;;-2.62;76.82;99536.09;2138076;83;20975;-79
2021/12/21 07:42:37;;;;;;;8.45;6.00;;;;;;;-2.61;77.20;99534.43;2162771;82;21293;-79
2021/12/21 07:45:38;;;;;;;9.27;5.63;;;;;;;-2.61;76.28;99535.32;2138012;83;21022;-79
2021/12/21 07:48:40;;;;;;;20.63;12.40;;;;;;;-2.60;76.10;99546.08;2163819;82;20976;-80
2021/12/21 07:51:41;;;;;;;13.57;8.93;;;;;;;-2.59;76.31;99545.30;2177990;82;20995;-80
2021/12/21 07:54:41;;;;;;;15.67;7.33;;;;;;;-2.59;75.22;99546.58;2177588;81;20967;-81
2021/12/21 07:57:42;;;;;;;12.60;6.50;;;;;;;-2.50;76.06;99553.15;2177526;82;20986;-79
2021/12/21 08:00:43;;;;;;;14.53;6.80;;;;;;;-2.42;75.91;99552.94;2177535;82;20986;-81
2021/12/21 08:03:44;;;;;;;12.60;7.63;;;;;;;-2.37;74.95;99562.22;2177608;82;21022;-80
2021/12/21 08:06:47;;;;;;;24.27;9.07;;;;;;;-2.36;75.35;99560.17;2177239;81;21370;-79
2021/12/21 08:09:51;;;;;;;21.77;7.73;;;;;;;-2.35;75.31;99555.16;2224198;79;21067;-79
2021/12/21 08:12:49;;;;;;;14.83;7.27;;;;;;;-2.33;74.19;99552.72;2222116;79;21003;-80
2021/12/21 08:15:50;;;;;;;11.47;6.60;;;;;;;-2.43;73.81;99560.50;2222857;79;21046;-78
2021/12/21 08:18:50;;;;;;;9.40;5.77;;;;;;;-2.53;73.98;99557.65;2223821;79;20995;-79
2021/12/21 08:21:51;;;;;;;10.90;7.63;;;;;;;-2.66;73.90;99557.09;2222949;79;20968;-80
2021/12/21 08:24:51;;;;;;;10.17;6.90;;;;;;;-2.66;74.50;99555.81;2224031;79;21451;-80
2021/12/21 08:27:52;;;;;;;10.97;6.93;;;;;;;-2.54;74.43;99569.04;2222561;80;21447;-79
2021/12/21 08:30:52;;;;;;;14.20;5.73;;;;;;;-2.41;73.85;99572.61;2222398;79;21709;-79
2021/12/21 08:33:53;;;;;;;11.70;5.93;;;;;;;-2.17;73.72;99574.80;2222669;79;21323;-79
2021/12/21 08:36:53;;;;;;;12.63;7.60;;;;;;;-2.03;73.02;99584.75;2222112;79;21018;-79
2021/12/21 08:39:55;;;;;;;15.17;6.37;;;;;;;-1.98;72.48;99593.27;2222500;79;21123;-79
2021/12/21 08:42:56;;;;;;;13.40;7.27;;;;;;;-1.98;71.43;99611.17;2173259;81;20995;-79
2021/12/21 08:45:56;;;;;;;11.80;6.20;;;;;;;-1.98;72.14;99605.16;2220311;80;21035;-79
2021/12/21 08:48:57;;;;;;;12.10;6.60;;;;;;;-1.99;71.43;99617.06;2222336;79;20979;-80
2021/12/21 08:51:58;;;;;;;13.23;7.13;;;;;;;-2.04;72.08;99623.91;2224589;79;21446;-80
2021/12/21 08:54:58;;;;;;;10.60;7.40;;;;;;;-2.08;72.30;99618.95;2225109;79;20983;-79
2021/12/21 08:57:59;;;;;;;8.33;5.83;;;;;;;-2.27;71.22;99622.22;2224558;79;20987;-78
2021/12/21 09:00:59;;;;;;;13.70;6.67;;;;;;;-2.38;71.69;99615.03;2224239;79;20983;-78
2021/12/21 09:04:00;;;;;;;15.47;6.90;;;;;;;-2.47;71.50;99627.13;2223395;79;21007;-79
2021/12/21 09:07:02;;;;;;;16.40;8.40;;;;;;;-2.53;71.59;99619.38;2223509;79;21539;-79
2021/12/21 09:10:02;;;;;;;12.10;7.00;;;;;;;-2.55;72.09;99628.61;2224092;79;21011;-80
2021/12/21 09:13:03;;;;;;;13.17;8.33;;;;;;;-2.55;71.57;99619.27;2226129;79;21511;-78
2021/12/21 09:16:03;;;;;;;12.33;7.53;;;;;;;-2.50;71.54;99619.61;2224222;79;21295;-79
2021/12/21 09:19:04;;;;;;;13.23;7.07;;;;;;;-1.99;75.06;99615.79;2223388;79;20979;-77
2021/12/21 09:22:05;;;;;;;15.53;8.37;;;;;;;-1.96;70.43;99621.13;2222076;79;20956;-78
2021/12/21 09:25:05;;;;;;;16.67;8.40;;;;;;;-2.09;70.78;99622.29;2221598;79;21482;-78
2021/12/21 09:28:06;;;;;;;11.83;7.67;;;;;;;-2.20;70.90;99621.89;2221850;79;20960;-78
2021/12/21 09:31:06;;;;;;;13.47;7.60;;;;;;;-2.24;71.66;99621.16;2222251;79;20991;-78
2021/12/21 09:34:07;;;;;;;12.93;8.10;;;;;;;-2.16;70.67;99616.22;2221737;79;20992;-79
2021/12/21 09:37:08;;;;;;;10.20;7.53;;;;;;;-2.06;70.66;99616.51;2222466;79;21251;-78
2021/12/21 09:40:09;;;;;;;13.97;8.43;;;;;;;-2.08;70.40;99612.95;2176507;81;21042;-78
2021/12/21 09:43:10;;;;;;;12.27;7.40;;;;;;;-2.00;70.41;99616.95;2162949;82;21016;-79
2021/12/21 09:46:10;;;;;;;12.27;7.27;;;;;;;-1.87;70.45;99620.02;2137549;83;21003;-78
2021/12/21 09:49:15;;;;;;;11.37;6.97;;;;;;;-1.77;69.99;99623.73;2163489;82;20972;-78
2021/12/21 09:52:16;;;;;;;12.30;7.13;;;;;;;-1.62;70.06;99626.16;2137541;83;21306;-77
2021/12/21 09:55:18;;;;;;;11.17;7.17;;;;;;;-1.60;69.71;99624.59;2163374;82;20996;-78
2021/12/21 09:58:19;;;;;;;10.93;6.60;;;;;;;-1.63;69.20;99621.81;2138317;83;21063;-78
2021/12/21 10:01:21;;;;;;;11.70;6.03;;;;;;;-1.59;68.31;99630.21;2163164;82;21376;-77
2021/12/21 10:04:21;;;;;;;11.23;6.77;;;;;;;-1.56;67.90;99625.70;2137408;83;21767;-78
2021/12/21 10:07:22;;;;;;;10.70;6.67;;;;;;;-1.54;68.75;99636.55;2162707;82;21031;-79
2021/12/21 10:10:23;;;;;;;7.87;5.53;;;;;;;-1.49;67.32;99632.65;2138388;83;21042;-80
2021/12/21 10:13:23;;;;;;;19.30;8.73;;;;;;;-1.43;65.62;99638.20;2163033;82;21028;-80
2021/12/21 10:16:24;;;;;;;9.17;6.03;;;;;;;-1.37;67.12;99636.47;2138961;83;20967;-80
2021/12/21 10:19:24;;;;;;;11.77;6.07;;;;;;;-1.39;65.16;99635.08;2164509;82;21336;-78
2021/12/21 10:22:25;;;;;;;15.07;8.77;;;;;;;-1.37;65.67;99638.64;2138213;83;21430;-77
2021/12/21 10:25:26;;;;;;;7.47;5.70;;;;;;;-1.32;67.58;99633.84;2161948;82;21071;-78
2021/12/21 10:28:26;;;;;;;11.47;6.90;;;;;;;-1.23;66.51;99644.73;2135776;83;21899;-77
2021/12/21 10:31:27;;;;;;;11.40;7.03;;;;;;;-1.25;64.71;99636.05;2160824;82;21012;-78
2021/12/21 10:34:30;;;;;;;10.20;5.60;;;;;;;-1.29;64.87;99636.23;2137684;83;21050;-78
2021/12/21 10:37:31;;;;;;;9.60;5.87;;;;;;;-1.24;63.49;99639.11;2163031;82;20972;-78
2021/12/21 10:40:32;;;;;;;11.53;6.57;;;;;;;-1.18;65.09;99637.38;2138053;83;21378;-77
2021/12/21 10:43:32;;;;;;;8.57;6.20;;;;;;;-1.11;64.46;99643.43;2164009;82;21402;-77
2021/12/21 10:46:33;;;;;;;10.67;6.00;;;;;;;-1.18;63.85;99632.25;2139153;83;20998;-79
2021/12/21 10:49:34;;;;;;;8.97;6.27;;;;;;;-1.31;64.58;99626.27;2164139;82;20960;-79
2021/12/21 10:52:35;;;;;;;15.33;9.13;;;;;;;-1.33;62.88;99625.27;2139038;83;21078;-78
2021/12/21 10:55:35;;;;;;;14.67;8.20;;;;;;;-1.34;63.51;99621.32;2164197;82;21286;-78
2021/12/21 10:58:36;;;;;;;10.93;5.73;;;;;;;-1.34;62.38;99626.05;2138770;83;21042;-78
2021/12/21 11:01:36;;;;;;;12.87;6.50;;;;;;;-1.36;63.03;99617.38;2164667;82;21283;-78
2021/12/21 11:04:37;;;;;;;9.67;6.80;;;;;;;-1.40;62.93;99615.38;2137002;83;21042;-79
2021/12/21 11:07:42;;;;;;;8.63;6.37;;;;;;;-1.33;63.81;99617.59;2161223;81;21040;-79
2021/12/21 11:10:41;;;;;;;12.37;7.40;;;;;;;-1.29;63.69;99602.93;2220423;79;21015;-78
2021/12/21 11:13:42;;;;;;;10.10;6.17;;;;;;;-1.25;62.06;99618.52;2220868;79;21051;-78
2021/12/21 11:16:43;;;;;;;12.70;5.83;;;;;;;-1.26;62.17;99609.94;2222028;79;21102;-80
2021/12/21 11:19:44;;;;;;;9.73;5.80;;;;;;;-1.21;62.39;99605.14;2224622;79;20984;-80
2021/12/21 11:22:44;;;;;;;12.83;6.63;;;;;;;-1.18;61.91;99607.91;2223826;79;20972;-79
2021/12/21 11:25:46;;;;;;;8.20;6.13;;;;;;;-1.08;62.48;99612.89;2223947;79;21038;-80
2021/12/21 11:28:49;;;;;;;10.37;6.47;;;;;;;-1.04;60.11;99605.92;2171637;82;21562;-78
2021/12/21 11:31:49;;;;;;;8.87;5.77;;;;;;;-1.08;60.91;99607.38;2221921;79;20995;-79
2021/12/21 11:37:52;;;;;;;9.60;6.23;;;;;;;-1.10;59.34;99606.77;2220845;80;20987;-78
2021/12/21 11:40:53;;;;;;;9.73;5.73;;;;;;;-1.07;58.64;99608.27;2173076;81;20935;-79
2021/12/21 11:43:55;;;;;;;11.17;6.60;;;;;;;-1.00;59.56;99606.63;2223150;80;20991;-77
2021/12/21 11:46:58;;;;;;;16.03;8.50;;;;;;;-0.98;59.36;99606.34;2223113;80;21054;-79
2021/12/21 11:50:00;;;;;;;11.10;6.43;;;;;;;-0.97;60.49;99597.48;2223116;80;21043;-79
2021/12/21 11:53:00;;;;;;;9.93;6.57;;;;;;;-0.95;60.75;99600.14;2173500;82;20979;-78
2021/12/21 11:56:00;;;;;;;9.67;5.77;;;;;;;-0.88;61.44;99597.22;2223487;79;21010;-78
2021/12/21 11:59:01;;;;;;;9.00;6.60;;;;;;;-0.81;60.95;99599.84;2222772;79;20932;-78
2021/12/21 12:02:03;;;;;;;19.93;9.53;;;;;;;-0.85;60.31;99592.72;2223699;79;20971;-78
2021/12/21 12:05:04;;;;;;;16.07;7.43;;;;;;;-0.86;61.31;99599.91;2222476;79;21022;-78
2021/12/21 12:08:04;;;;;;;10.53;6.80;;;;;;;-0.88;59.77;99595.05;2223612;79;21419;-78
2021/12/21 12:11:05;;;;;;;16.23;8.43;;;;;;;-1.00;59.91;99598.55;2225740;79;20983;-78
2021/12/21 12:14:05;;;;;;;12.87;6.57;;;;;;;-1.03;60.38;99600.01;2225197;79;20966;-78
2021/12/21 12:17:06;;;;;;;11.97;8.23;;;;;;;-1.07;60.74;99600.58;2225106;79;21070;-78
2021/12/21 12:20:07;;;;;;;16.47;9.37;;;;;;;-1.01;60.31;99594.59;2226095;79;21015;-77
2021/12/21 12:23:08;;;;;;;11.53;7.13;;;;;;;-1.03;59.47;99598.73;2177993;81;20995;-78
2021/12/21 12:26:08;;;;;;;11.20;6.83;;;;;;;-1.11;59.76;99599.88;2164644;82;20992;-77
2021/12/21 12:29:09;;;;;;;13.83;6.90;;;;;;;-1.14;60.29;99599.66;2138062;83;20979;-78
2021/12/21 12:32:11;;;;;;;15.10;7.70;;;;;;;-1.18;60.60;99602.79;2163828;82;21012;-78
2021/12/21 12:35:12;;;;;;;23.33;9.23;;;;;;;-1.25;60.97;99600.20;2136816;83;21094;-78
2021/12/21 12:38:15;;;;;;;15.27;8.87;;;;;;;-1.30;60.80;99607.55;2163210;82;21019;-78
2021/12/21 12:41:15;;;;;;;11.83;7.20;;;;;;;-1.41;61.18;99596.95;2138303;83;21030;-77
2021/12/21 12:44:16;;;;;;;10.27;6.87;;;;;;;-1.40;60.64;99600.41;2164616;82;21102;-78
2021/12/21 12:47:16;;;;;;;8.40;6.77;;;;;;;-1.36;63.36;99599.45;2139661;83;21086;-79
2021/12/21 12:50:17;;;;;;;12.83;7.83;;;;;;;-1.32;60.99;99598.88;2165312;82;21068;-80
2021/12/21 12:53:17;;;;;;;20.53;10.13;;;;;;;-1.37;61.01;99600.23;2139360;83;21296;-77
2021/12/21 12:56:19;;;;;;;16.23;8.67;;;;;;;-1.39;61.62;99603.07;2163947;82;21051;-79
2021/12/21 12:59:20;;;;;;;19.90;8.80;;;;;;;-1.42;61.45;99602.86;2137047;83;20979;-80
2021/12/21 13:02:20;;;;;;;18.50;10.23;;;;;;;-1.47;60.00;99597.80;2162435;82;21329;-81
2021/12/21 13:05:21;;;;;;;22.93;10.50;;;;;;;-1.52;61.36;99599.14;2176936;82;21086;-80
2021/12/21 13:08:21;;;;;;;15.53;8.00;;;;;;;-1.56;60.95;99600.98;2163775;81;21059;-79
2021/12/21 13:11:22;;;;;;;16.50;8.23;;;;;;;-1.63;60.42;99606.06;2138108;83;20966;-78
2021/12/21 13:14:23;;;;;;;20.10;9.33;;;;;;;-1.55;72.59;99614.68;2160670;82;20945;-79
2021/12/21 13:17:23;;;;;;;13.90;7.93;;;;;;;-0.31;60.73;99610.93;2134325;83;21019;-78
2021/12/21 13:20:24;;;;;;;17.60;9.63;;;;;;;-0.66;61.16;99606.00;2161335;82;20972;-78
2021/12/21 13:23:29;;;;;;;18.37;8.50;;;;;;;-0.64;61.57;99603.16;2135067;83;21018;-78
2021/12/21 13:26:29;;;;;;;;;;;;;;;-0.98;61.19;99610.19;2163285;82;21009;-78
2021/12/21 13:29:30;;;;;;;19.47;8.73;;;;;;;-1.28;61.16;99616.62;2175104;82;20149;-79
2021/12/21 13:32:33;;;;;;;29.07;12.47;;;;;;;-1.46;61.94;99626.47;2176330;81;21078;-79
2021/12/21 13:35:33;;;;;;;21.40;10.63;;;;;;;-1.66;61.46;99627.61;2165285;82;21053;-79
2021/12/21 13:38:34;;;;;;;23.53;9.10;;;;;;;-1.85;62.05;99623.58;2177853;82;20961;-80
2021/12/21 13:44:37;;;;;;;20.03;8.47;;;;;;;-2.14;62.07;99621.06;2163931;82;21002;-79
2021/12/21 13:47:40;;;;;;;15.43;8.50;;;;;;;-2.21;63.03;99630.34;2176534;82;21094;-78
2021/12/21 13:50:39;;;;;;;14.80;8.53;;;;;;;-2.29;63.07;99622.10;2175364;81;21551;-78
2021/12/21 13:53:40;;;;;;;16.40;8.93;;;;;;;-2.35;63.19;99629.31;2175358;82;21003;-80
2021/12/21 13:56:40;;;;;;;22.27;9.87;;;;;;;-2.42;63.48;99635.14;2175364;82;21405;-78
2021/12/21 13:59:41;;;;;;;16.23;8.80;;;;;;;-2.42;66.09;99638.59;2176553;82;20990;-78
2021/12/21 14:02:42;;;;;;;28.60;12.80;;;;;;;-1.17;64.60;99634.03;2176104;81;20994;-78
2021/12/21 14:05:44;;;;;;;24.67;11.60;;;;;;;-1.47;63.76;99633.65;2162802;82;21301;-79
2021/12/21 14:08:45;;;;;;;20.30;11.00;;;;;;;-1.77;63.55;99639.09;2175690;81;21019;-78
2021/12/21 14:11:45;;;;;;;16.07;8.60;;;;;;;-2.02;63.73;99641.54;2221570;79;20987;-76
2021/12/21 14:14:46;;;;;;;32.97;14.83;;;;;;;-2.20;63.93;99642.73;2221009;79;21213;-77
2021/12/21 14:17:46;;;;;;;48.53;20.23;;;;;;;-2.34;64.16;99646.44;2220378;79;21446;-78
2021/12/21 14:20:47;;;;;;;58.30;22.90;;;;;;;-2.42;64.46;99645.37;2220774;79;21375;-78
2021/12/21 14:23:47;;;;;;;70.67;28.27;;;;;;;-2.49;64.80;99648.23;2221183;79;21428;-78
2021/12/21 14:26:48;;;;;;;92.37;37.70;;;;;;;-2.58;65.06;99642.94;2222202;79;21689;-77
2021/12/21 14:29:48;;;;;;;95.33;42.10;;;;;;;-2.61;65.15;99646.50;2222229;79;20975;-78
2021/12/21 14:33:06;;;;;;;82.70;36.33;;;;;;;-2.68;65.36;99638.25;2222074;79;20959;-78
2021/12/21 14:36:08;;;;;;;83.30;34.20;;;;;;;-2.71;65.69;99641.47;2172870;81;21231;-79
2021/12/21 14:39:09;;;;;;;98.37;42.30;;;;;;;-2.70;65.94;99639.42;2224575;79;21047;-79
2021/12/21 14:42:09;;;;;;;105.67;47.37;;;;;;;-2.70;65.96;99634.69;2225964;79;20909;-79
2021/12/21 14:45:10;;;;;;;94.33;41.83;;;;;;;-2.65;66.31;99631.71;2225909;79;21050;-79
2021/12/21 14:48:10;;;;;;;112.63;43.90;;;;;;;-2.58;66.63;99634.38;2224840;79;21038;-79
2021/12/21 14:51:12;;;;;;;113.97;44.47;;;;;;;-2.55;66.70;99630.77;2225981;79;20979;-79